Time;durP1;ratioP1;P1;durP2;ratioP2;P2;SDS_P1;SDS_P2;PMS_P1;PMS_P2;Temp;Humidity;BMP_temperature;BMP_pressure;BME280_temperature;BME280_humidity;BME280_pressure;Samples;Min_cycle;Max_cycle;Signal;HPM_P1;HPM_P2
2023/11/17 00:02:24;;;;;;;7.87;6.10;;;;;;;;;;5120594;27;21009;-70
2023/11/17 00:04:50;;;;;;;10.57;7.33;;;;;;;;;;5113592;27;20483;-71
2023/11/17 00:07:18;;;;;;;10.37;7.93;;;;;;;;;;5121773;27;20517;-70
2023/11/17 00:09:44;;;;;;;7.50;6.20;;;;;;;;;;5113300;27;20531;-71
2023/11/17 00:12:11;;;;;;;9.03;7.03;;;;;;;;;;5119129;27;20474;-70
2023/11/17 00:14:37;;;;;;;9.33;5.90;;;;;;;;;;5119820;27;20673;-69
2023/11/17 00:17:04;;;;;;;8.23;5.77;;;;;;;;;;5105873;28;20492;-71
2023/11/17 00:19:30;;;;;;;10.00;7.03;;;;;;;;;;5129744;27;20524;-71
2023/11/17 00:21:58;;;;;;;9.33;7.20;;;;;;;;;;5117844;27;20453;-71
2023/11/17 00:24:26;;;;;;;7.63;6.50;;;;;;;;;;5111809;28;20539;-71
2023/11/17 00:26:52;;;;;;;13.03;6.47;;;;;;;;;;5125657;27;20478;-72
2023/11/17 00:29:19;;;;;;;9.33;6.70;;;;;;;;;;5112672;28;20458;-72
2023/11/17 00:31:46;;;;;;;11.03;7.10;;;;;;;;;;5121291;27;20488;-71
2023/11/17 00:34:12;;;;;;;9.00;6.77;;;;;;;;;;5115777;27;20520;-71
2023/11/17 00:36:42;;;;;;;9.17;6.70;;;;;;;;;;5126017;27;20494;-70
2023/11/17 00:39:09;;;;;;;8.73;6.73;;;;;;;;;;5120300;27;20523;-70
2023/11/17 00:41:37;;;;;;;8.63;7.07;;;;;;;;;;5122989;27;20485;-70
2023/11/17 00:44:03;;;;;;;9.40;6.80;;;;;;;;;;5116576;27;20454;-71
2023/11/17 00:46:30;;;;;;;7.23;6.10;;;;;;;;;;5126068;27;20476;-71
2023/11/17 00:48:59;;;;;;;7.30;6.53;;;;;;;;;;5124928;27;20441;-72
2023/11/17 00:51:26;;;;;;;8.83;7.03;;;;;;;;;;5113398;27;20545;-70
2023/11/17 00:53:51;;;;;;;8.67;6.80;;;;;;;;;;5115636;27;20537;-71
2023/11/17 00:56:19;;;;;;;10.80;7.40;;;;;;;;;;5122518;27;20453;-69
2023/11/17 00:58:47;;;;;;;11.00;8.00;;;;;;;;;;5118133;27;20669;-71
2023/11/17 01:01:13;;;;;;;9.00;7.00;;;;;;;;;;5115803;27;20455;-70
2023/11/17 01:03:40;;;;;;;7.67;6.50;;;;;;;;;;5123722;27;20490;-71
2023/11/17 01:06:06;;;;;;;7.23;6.53;;;;;;;;;;5118040;27;20453;-70
2023/11/17 01:08:33;;;;;;;8.33;6.77;;;;;;;;;;5115716;27;20450;-71
2023/11/17 01:10:59;;;;;;;10.33;6.60;;;;;;;;;;5115567;27;20510;-71
2023/11/17 01:13:26;;;;;;;8.90;5.93;;;;;;;;;;5121359;27;20537;-71
2023/11/17 01:15:53;;;;;;;8.10;6.20;;;;;;;;;;5121170;27;20454;-71
2023/11/17 01:18:20;;;;;;;9.90;7.57;;;;;;;;;;5120265;27;20441;-72
2023/11/17 01:20:46;;;;;;;10.30;6.60;;;;;;;;;;5120006;28;20450;-72
2023/11/17 01:23:13;;;;;;;8.03;6.63;;;;;;;;;;5116006;27;20496;-70
2023/11/17 01:25:39;;;;;;;9.60;6.00;;;;;;;;;;5121722;27;20486;-69
2023/11/17 01:28:06;;;;;;;10.13;6.20;;;;;;;;;;5116497;27;20500;-71
2023/11/17 01:30:33;;;;;;;7.40;6.70;;;;;;;;;;5124021;27;20468;-72
2023/11/17 01:33:02;;;;;;;10.60;6.43;;;;;;;;;;5133664;27;20495;-71
2023/11/17 01:35:28;;;;;;;8.57;6.70;;;;;;;;;;5114329;27;20578;-71
2023/11/17 01:37:55;;;;;;;10.03;7.20;;;;;;;;;;5112473;27;20450;-68
2023/11/17 01:40:23;;;;;;;11.20;6.97;;;;;;;;;;5113055;27;20464;-72
2023/11/17 01:42:51;;;;;;;9.77;6.50;;;;;;;;;;5107004;28;20529;-70
2023/11/17 01:45:17;;;;;;;7.63;5.90;;;;;;;;;;5120873;27;20488;-71
2023/11/17 01:47:44;;;;;;;6.33;5.50;;;;;;;;;;5120833;27;20446;-71
2023/11/17 01:50:13;;;;;;;11.33;7.10;;;;;;;;;;5113620;27;20458;-72
2023/11/17 01:52:40;;;;;;;7.20;6.47;;;;;;;;;;5113063;27;20489;-72
2023/11/17 01:55:08;;;;;;;10.10;6.43;;;;;;;;;;5125985;27;20517;-72
2023/11/17 01:57:37;;;;;;;8.13;6.27;;;;;;;;;;5120219;27;20765;-70
2023/11/17 02:00:06;;;;;;;9.10;6.03;;;;;;;;;;5114418;27;20469;-70
2023/11/17 02:02:33;;;;;;;8.20;6.70;;;;;;;;;;5124368;27;20451;-72
2023/11/17 02:04:59;;;;;;;6.60;5.40;;;;;;;;;;5117608;27;20900;-72
2023/11/17 02:07:32;;;;;;;10.50;7.10;;;;;;;;;;5119564;27;20474;-71
2023/11/17 02:10:06;;;;;;;9.60;5.80;;;;;;;;;;5117268;27;20458;-71
2023/11/17 02:12:35;;;;;;;6.87;6.13;;;;;;;;;;5115095;27;20861;-71
2023/11/17 02:15:09;;;;;;;8.57;6.83;;;;;;;;;;5122758;27;20869;-72
2023/11/17 02:17:37;;;;;;;7.00;5.70;;;;;;;;;;5110558;27;20451;-69
2023/11/17 02:20:11;;;;;;;8.27;6.20;;;;;;;;;;5108815;28;20494;-69
2023/11/17 02:22:40;;;;;;;7.27;6.43;;;;;;;;;;5109936;28;20530;-69
2023/11/17 02:25:11;;;;;;;5.87;5.23;;;;;;;;;;5117859;27;21009;-70
2023/11/17 02:27:47;;;;;;;12.17;6.57;;;;;;;;;;5116639;27;20488;-70
2023/11/17 02:30:19;;;;;;;7.63;6.30;;;;;;;;;;5122212;27;20477;-69
2023/11/17 02:32:46;;;;;;;8.83;6.10;;;;;;;;;;5103543;28;20482;-70
2023/11/17 02:35:15;;;;;;;8.00;6.20;;;;;;;;;;5120151;27;20554;-68
2023/11/17 02:37:42;;;;;;;8.33;5.70;;;;;;;;;;5124340;27;20458;-70
2023/11/17 02:40:18;;;;;;;9.43;6.30;;;;;;;;;;5122439;27;20489;-70
2023/11/17 02:42:44;;;;;;;7.37;5.63;;;;;;;;;;5121051;27;20460;-69
2023/11/17 02:45:18;;;;;;;6.93;5.83;;;;;;;;;;5114935;27;20484;-70
2023/11/17 02:47:48;;;;;;;6.70;5.10;;;;;;;;;;5114876;27;20447;-70
2023/11/17 02:50:18;;;;;;;8.97;6.40;;;;;;;;;;5112398;28;20459;-70
2023/11/17 02:53:00;;;;;;;6.03;5.43;;;;;;;;;;5114280;27;20443;-70
2023/11/17 02:55:29;;;;;;;9.40;5.90;;;;;;;;;;5121667;27;20533;-69
2023/11/17 02:57:57;;;;;;;8.83;6.33;;;;;;;;;;5115439;27;20541;-70
2023/11/17 03:00:23;;;;;;;8.53;6.00;;;;;;;;;;5111826;27;20772;-70
2023/11/17 03:02:51;;;;;;;7.90;5.57;;;;;;;;;;5107252;27;20482;-69
2023/11/17 03:05:17;;;;;;;7.97;6.30;;;;;;;;;;5123656;27;20501;-69
2023/11/17 03:07:44;;;;;;;7.00;5.60;;;;;;;;;;5111969;27;20482;-71
2023/11/17 03:10:11;;;;;;;8.20;6.13;;;;;;;;;;5107643;27;20804;-70
2023/11/17 03:12:37;;;;;;;9.10;6.10;;;;;;;;;;5112655;27;20481;-68
2023/11/17 03:15:04;;;;;;;8.40;6.90;;;;;;;;;;5108713;27;20534;-69
2023/11/17 03:17:30;;;;;;;9.93;6.67;;;;;;;;;;5116480;27;20451;-70
2023/11/17 03:20:00;;;;;;;9.17;6.73;;;;;;;;;;5113831;28;20826;-69
2023/11/17 03:22:26;;;;;;;7.90;6.80;;;;;;;;;;5120268;27;20490;-69
2023/11/17 03:24:53;;;;;;;8.33;6.77;;;;;;;;;;5119273;27;20447;-71
2023/11/17 03:27:19;;;;;;;8.90;6.97;;;;;;;;;;5116230;28;21074;-71
2023/11/17 03:29:46;;;;;;;7.90;6.20;;;;;;;;;;5115533;28;20481;-70
2023/11/17 03:32:13;;;;;;;10.63;6.73;;;;;;;;;;5095255;28;21082;-72
2023/11/17 03:34:40;;;;;;;9.87;6.17;;;;;;;;;;5122989;27;20588;-72
2023/11/17 03:37:12;;;;;;;9.70;5.83;;;;;;;;;;5115838;27;20447;-71
2023/11/17 03:39:41;;;;;;;8.23;6.90;;;;;;;;;;5124234;27;20560;-71
2023/11/17 03:42:10;;;;;;;6.83;6.10;;;;;;;;;;5109294;27;20455;-72
2023/11/17 03:44:36;;;;;;;9.03;7.10;;;;;;;;;;5121040;27;20473;-72
2023/11/17 03:47:06;;;;;;;11.57;7.40;;;;;;;;;;5128678;27;20477;-71
2023/11/17 03:49:32;;;;;;;8.17;6.90;;;;;;;;;;5123664;27;20500;-71
2023/11/17 03:51:58;;;;;;;13.60;7.00;;;;;;;;;;5129959;27;20449;-72
2023/11/17 03:54:26;;;;;;;8.70;7.00;;;;;;;;;;5114429;27;21160;-72
2023/11/17 03:56:54;;;;;;;9.77;7.00;;;;;;;;;;5127869;27;20477;-72
2023/11/17 03:59:21;;;;;;;10.50;7.00;;;;;;;;;;5127030;27;20485;-70
2023/11/17 04:01:48;;;;;;;9.50;7.90;;;;;;;;;;5113520;27;20459;-72
2023/11/17 04:04:17;;;;;;;8.23;7.10;;;;;;;;;;5111771;27;20522;-69
2023/11/17 04:06:43;;;;;;;10.57;7.80;;;;;;;;;;5119175;27;20454;-71
2023/11/17 04:09:15;;;;;;;8.77;7.03;;;;;;;;;;5119330;28;20481;-71
2023/11/17 04:11:43;;;;;;;8.43;7.50;;;;;;;;;;5123298;27;20469;-71
2023/11/17 04:14:10;;;;;;;9.70;7.97;;;;;;;;;;5120127;27;20540;-71
2023/11/17 04:16:37;;;;;;;10.60;8.63;;;;;;;;;;5124631;27;21228;-69
2023/11/17 04:19:03;;;;;;;9.40;7.40;;;;;;;;;;5113025;27;20459;-71
2023/11/17 04:21:30;;;;;;;10.50;8.07;;;;;;;;;;5119545;27;20490;-71
2023/11/17 04:23:56;;;;;;;9.97;7.17;;;;;;;;;;5123958;27;20488;-71
2023/11/17 04:26:23;;;;;;;9.10;7.27;;;;;;;;;;5114148;27;20515;-72
2023/11/17 04:28:50;;;;;;;12.30;7.67;;;;;;;;;;5127957;27;20895;-70
2023/11/17 04:31:18;;;;;;;12.63;7.20;;;;;;;;;;5121072;27;20549;-69
2023/11/17 04:33:44;;;;;;;9.63;6.87;;;;;;;;;;5117085;27;20459;-69
2023/11/17 04:36:11;;;;;;;8.67;7.77;;;;;;;;;;5119608;27;20518;-70
2023/11/17 04:38:37;;;;;;;13.47;7.40;;;;;;;;;;5118942;27;20456;-70
2023/11/17 04:41:04;;;;;;;9.60;7.50;;;;;;;;;;5109429;28;21175;-70
2023/11/17 04:43:31;;;;;;;10.70;8.40;;;;;;;;;;5115022;27;20458;-71
2023/11/17 04:45:58;;;;;;;9.83;7.97;;;;;;;;;;5117041;27;20552;-71
2023/11/17 04:48:25;;;;;;;12.40;7.03;;;;;;;;;;5113200;27;21280;-71
2023/11/17 04:50:52;;;;;;;14.23;7.83;;;;;;;;;;5121920;27;20475;-72
2023/11/17 04:53:18;;;;;;;9.23;7.40;;;;;;;;;;5128606;27;21529;-70
2023/11/17 04:55:48;;;;;;;10.43;7.93;;;;;;;;;;5121698;27;20509;-70
2023/11/17 04:58:15;;;;;;;9.53;7.43;;;;;;;;;;5129729;27;20453;-70
2023/11/17 05:00:41;;;;;;;7.80;6.83;;;;;;;;;;5121161;27;20454;-70
2023/11/17 05:03:09;;;;;;;8.83;6.63;;;;;;;;;;5112916;28;21353;-71
2023/11/17 05:05:36;;;;;;;9.87;7.40;;;;;;;;;;5112511;28;20504;-71
2023/11/17 05:08:02;;;;;;;11.53;7.97;;;;;;;;;;5115743;27;20545;-71
2023/11/17 05:10:29;;;;;;;10.87;7.30;;;;;;;;;;5111589;27;20545;-69
2023/11/17 05:12:55;;;;;;;10.10;6.50;;;;;;;;;;5106194;28;20449;-72
2023/11/17 05:15:22;;;;;;;8.40;7.33;;;;;;;;;;5111399;27;20517;-71
2023/11/17 05:17:49;;;;;;;9.50;7.60;;;;;;;;;;5112801;27;20459;-69
2023/11/17 05:20:18;;;;;;;12.40;8.93;;;;;;;;;;5121617;27;20891;-69
2023/11/17 05:22:45;;;;;;;15.33;8.83;;;;;;;;;;5131205;27;20438;-70
2023/11/17 05:25:11;;;;;;;9.03;7.63;;;;;;;;;;5124939;27;20453;-70
2023/11/17 05:27:38;;;;;;;12.07;9.30;;;;;;;;;;5125910;27;20450;-69
2023/11/17 05:30:06;;;;;;;12.50;8.27;;;;;;;;;;5126902;27;20482;-70
2023/11/17 05:32:33;;;;;;;14.40;10.53;;;;;;;;;;5112513;28;20486;-69
2023/11/17 05:35:00;;;;;;;17.60;10.80;;;;;;;;;;5115358;27;20513;-73
2023/11/17 05:37:27;;;;;;;17.80;12.10;;;;;;;;;;5114940;27;20486;-72
2023/11/17 05:39:54;;;;;;;16.50;10.40;;;;;;;;;;5111931;27;21263;-71
2023/11/17 05:42:20;;;;;;;22.60;10.93;;;;;;;;;;5118914;27;20492;-71
2023/11/17 05:44:47;;;;;;;16.83;10.43;;;;;;;;;;5116877;27;20446;-71
2023/11/17 05:47:14;;;;;;;14.80;9.97;;;;;;;;;;5103828;28;20493;-73
2023/11/17 05:49:43;;;;;;;14.93;9.77;;;;;;;;;;5124312;27;20500;-71
2023/11/17 05:52:09;;;;;;;16.00;10.63;;;;;;;;;;5128213;27;20465;-73
2023/11/17 05:54:43;;;;;;;16.93;10.60;;;;;;;;;;5110734;28;20525;-73
2023/11/17 05:57:10;;;;;;;21.30;12.10;;;;;;;;;;5117666;27;20449;-73
2023/11/17 05:59:36;;;;;;;21.57;11.07;;;;;;;;;;5118894;27;20545;-72
2023/11/17 06:02:03;;;;;;;15.17;9.57;;;;;;;;;;5125404;27;20474;-71
2023/11/17 06:04:30;;;;;;;15.53;9.63;;;;;;;;;;5110899;27;20467;-71
2023/11/17 06:06:57;;;;;;;17.50;10.23;;;;;;;;;;5109396;28;20566;-72
2023/11/17 06:09:23;;;;;;;18.30;10.43;;;;;;;;;;5112805;28;20496;-70
2023/11/17 06:11:51;;;;;;;14.17;11.27;;;;;;;;;;5103516;28;20477;-65
2023/11/17 06:14:18;;;;;;;17.83;9.87;;;;;;;;;;5100840;28;20469;-65
2023/11/17 06:16:44;;;;;;;18.57;11.93;;;;;;;;;;5116492;27;20552;-72
2023/11/17 06:19:12;;;;;;;18.30;11.10;;;;;;;;;;5108968;28;20502;-72
2023/11/17 06:21:39;;;;;;;22.50;12.20;;;;;;;;;;5104107;28;21034;-72
2023/11/17 06:24:06;;;;;;;18.80;11.97;;;;;;;;;;5118145;27;20485;-74
2023/11/17 06:26:32;;;;;;;13.40;10.30;;;;;;;;;;5112670;27;21217;-72
2023/11/17 06:29:00;;;;;;;20.33;11.60;;;;;;;;;;5117050;28;21106;-72
2023/11/17 06:31:28;;;;;;;15.73;9.87;;;;;;;;;;5107532;28;20469;-72
2023/11/17 06:33:54;;;;;;;16.73;10.90;;;;;;;;;;5096608;28;20797;-72
2023/11/17 06:36:22;;;;;;;16.50;12.17;;;;;;;;;;5110084;28;20514;-65
2023/11/17 06:38:49;;;;;;;15.00;10.60;;;;;;;;;;5103315;28;20490;-65
2023/11/17 06:41:16;;;;;;;14.43;9.97;;;;;;;;;;5096680;28;20455;-66
2023/11/17 06:43:43;;;;;;;15.37;10.70;;;;;;;;;;5110005;28;20502;-68
2023/11/17 06:46:11;;;;;;;16.83;10.50;;;;;;;;;;5118170;28;20446;-69
2023/11/17 06:48:38;;;;;;;16.00;10.53;;;;;;;;;;5107481;28;20447;-66
2023/11/17 06:51:05;;;;;;;13.00;10.20;;;;;;;;;;5117508;28;20513;-66
2023/11/17 06:53:32;;;;;;;13.50;10.10;;;;;;;;;;5103472;28;20454;-67
2023/11/17 06:55:59;;;;;;;12.80;9.50;;;;;;;;;;5115602;28;20485;-70
2023/11/17 06:58:26;;;;;;;15.10;9.40;;;;;;;;;;5110601;28;20455;-70
2023/11/17 07:00:53;;;;;;;14.33;10.23;;;;;;;;;;5115626;27;20446;-70
2023/11/17 07:03:21;;;;;;;14.40;10.10;;;;;;;;;;5099530;28;20466;-68
2023/11/17 07:05:48;;;;;;;15.10;11.20;;;;;;;;;;5110601;27;20450;-68
2023/11/17 07:08:17;;;;;;;14.17;11.00;;;;;;;;;;5113766;27;20454;-69
2023/11/17 07:10:44;;;;;;;15.27;12.70;;;;;;;;;;5110355;28;20515;-69
2023/11/17 07:13:10;;;;;;;14.10;10.10;;;;;;;;;;5104415;28;20454;-69
2023/11/17 07:15:40;;;;;;;16.43;11.77;;;;;;;;;;5119562;27;20482;-69
2023/11/17 07:18:06;;;;;;;15.00;10.93;;;;;;;;;;5108965;27;20464;-67
2023/11/17 07:20:34;;;;;;;17.53;12.17;;;;;;;;;;5114746;28;20522;-68
2023/11/17 07:23:00;;;;;;;15.33;10.90;;;;;;;;;;5113672;27;20490;-69
2023/11/17 07:25:28;;;;;;;14.97;10.87;;;;;;;;;;5115104;28;20458;-68
2023/11/17 07:27:55;;;;;;;13.20;10.87;;;;;;;;;;5102334;28;20747;-70
2023/11/17 07:30:23;;;;;;;14.17;10.30;;;;;;;;;;5111496;28;20454;-66
2023/11/17 07:32:50;;;;;;;12.97;9.60;;;;;;;;;;5108828;28;20521;-69
2023/11/17 07:35:16;;;;;;;14.07;9.50;;;;;;;;;;5119430;28;20533;-69
2023/11/17 07:37:44;;;;;;;13.60;9.50;;;;;;;;;;5112589;28;20542;-69
2023/11/17 07:40:13;;;;;;;15.93;10.10;;;;;;;;;;5094386;28;20469;-66
2023/11/17 07:42:40;;;;;;;11.43;8.80;;;;;;;;;;5111515;28;20500;-66
2023/11/17 07:45:07;;;;;;;11.40;9.77;;;;;;;;;;5108736;28;20457;-67
2023/11/17 07:47:36;;;;;;;13.53;10.23;;;;;;;;;;5112971;28;20525;-68
2023/11/17 07:50:07;;;;;;;13.47;9.77;;;;;;;;;;5122237;28;20465;-79
2023/11/17 07:52:33;;;;;;;14.43;10.83;;;;;;;;;;5097886;28;20465;-78
2023/11/17 07:55:01;;;;;;;13.27;9.40;;;;;;;;;;5103861;28;20493;-78
2023/11/17 07:57:27;;;;;;;13.93;9.43;;;;;;;;;;5118002;28;20533;-78
2023/11/17 07:59:54;;;;;;;15.23;10.90;;;;;;;;;;5109479;28;20455;-77
2023/11/17 08:02:20;;;;;;;16.07;10.00;;;;;;;;;;5108422;28;20461;-77
2023/11/17 08:04:46;;;;;;;12.27;9.97;;;;;;;;;;5110706;28;20489;-67
2023/11/17 08:07:14;;;;;;;16.57;12.90;;;;;;;;;;5107808;28;20484;-68
2023/11/17 08:09:41;;;;;;;13.97;12.50;;;;;;;;;;5105048;28;20458;-71
2023/11/17 08:12:11;;;;;;;15.20;13.90;;;;;;;;;;5113659;28;20521;-72
2023/11/17 08:14:37;;;;;;;16.60;15.30;;;;;;;;;;5116727;28;20445;-70
2023/11/17 08:17:04;;;;;;;16.10;14.67;;;;;;;;;;5111767;28;20483;-69
2023/11/17 08:19:30;;;;;;;13.80;12.50;;;;;;;;;;5119276;28;20478;-69
2023/11/17 08:21:57;;;;;;;11.30;9.70;;;;;;;;;;5115808;27;20461;-70
2023/11/17 08:24:23;;;;;;;11.93;10.87;;;;;;;;;;5118400;28;20491;-67
2023/11/17 08:26:51;;;;;;;11.60;10.67;;;;;;;;;;5122585;27;20442;-68
2023/11/17 08:29:19;;;;;;;11.07;10.03;;;;;;;;;;5121404;27;20454;-70
2023/11/17 08:31:45;;;;;;;11.10;10.00;;;;;;;;;;5116696;28;20484;-70
2023/11/17 08:34:12;;;;;;;12.80;11.70;;;;;;;;;;5115985;28;20453;-71
2023/11/17 08:36:38;;;;;;;11.87;10.77;;;;;;;;;;5117772;27;20625;-68
2023/11/17 08:39:08;;;;;;;11.60;10.70;;;;;;;;;;5114945;28;20442;-67
2023/11/17 08:41:35;;;;;;;11.03;10.13;;;;;;;;;;5112398;28;20457;-71
2023/11/17 08:44:01;;;;;;;13.90;12.00;;;;;;;;;;5109697;28;20523;-69
2023/11/17 08:46:29;;;;;;;12.03;10.93;;;;;;;;;;5112262;27;20435;-68
2023/11/17 08:48:56;;;;;;;12.27;11.10;;;;;;;;;;5104563;28;20442;-73
2023/11/17 08:51:23;;;;;;;12.63;11.43;;;;;;;;;;5118360;27;20457;-69
2023/11/17 08:53:50;;;;;;;12.80;11.60;;;;;;;;;;5117676;27;20458;-70
2023/11/17 08:56:18;;;;;;;12.80;11.70;;;;;;;;;;5099293;28;20895;-70
2023/11/17 08:58:44;;;;;;;13.30;11.37;;;;;;;;;;5112814;27;20450;-67
2023/11/17 09:01:11;;;;;;;12.07;10.80;;;;;;;;;;5114711;27;20479;-68
2023/11/17 09:03:38;;;;;;;14.37;10.47;;;;;;;;;;5116331;28;20446;-73
2023/11/17 09:06:05;;;;;;;10.53;9.53;;;;;;;;;;5111399;27;20444;-66
2023/11/17 09:08:32;;;;;;;12.10;11.00;;;;;;;;;;5116771;27;20447;-70
2023/11/17 09:10:58;;;;;;;11.50;10.40;;;;;;;;;;5102662;28;20475;-71
2023/11/17 09:13:25;;;;;;;14.53;10.30;;;;;;;;;;5110191;27;20454;-70
2023/11/17 09:15:52;;;;;;;11.13;10.03;;;;;;;;;;5112289;27;20489;-70
2023/11/17 09:18:19;;;;;;;11.27;10.10;;;;;;;;;;5107396;28;21030;-70
2023/11/17 09:20:46;;;;;;;14.27;10.63;;;;;;;;;;5105333;28;20471;-71
2023/11/17 09:23:13;;;;;;;11.27;10.17;;;;;;;;;;5111160;27;20938;-68
2023/11/17 09:25:39;;;;;;;15.80;10.70;;;;;;;;;;5117513;28;20454;-65
2023/11/17 09:28:06;;;;;;;14.77;11.20;;;;;;;;;;5097546;28;20482;-66
2023/11/17 09:30:33;;;;;;;13.67;10.13;;;;;;;;;;5112744;27;20467;-70
2023/11/17 09:33:02;;;;;;;9.73;8.73;;;;;;;;;;5111963;28;20471;-66
2023/11/17 09:35:32;;;;;;;12.77;9.00;;;;;;;;;;5117965;27;20956;-66
2023/11/17 09:38:00;;;;;;;10.00;9.00;;;;;;;;;;5115189;27;20483;-66
2023/11/17 09:40:28;;;;;;;13.17;8.67;;;;;;;;;;5106639;28;20484;-65
2023/11/17 09:42:55;;;;;;;10.33;8.10;;;;;;;;;;5115753;27;20442;-65
2023/11/17 09:45:22;;;;;;;8.60;7.80;;;;;;;;;;5119607;27;20483;-67
2023/11/17 09:47:51;;;;;;;8.57;7.00;;;;;;;;;;5113415;28;20484;-67
2023/11/17 09:50:19;;;;;;;8.43;7.67;;;;;;;;;;5116061;28;20819;-66
2023/11/17 09:52:47;;;;;;;9.40;7.60;;;;;;;;;;5113360;27;20555;-68
2023/11/17 09:55:16;;;;;;;8.77;8.10;;;;;;;;;;5108876;28;20451;-70
2023/11/17 09:57:45;;;;;;;9.73;8.93;;;;;;;;;;5115399;28;20513;-72
2023/11/17 10:00:17;;;;;;;8.10;7.40;;;;;;;;;;5106798;28;20475;-70
2023/11/17 10:02:47;;;;;;;8.07;7.40;;;;;;;;;;5106822;28;20455;-68
2023/11/17 10:05:13;;;;;;;9.50;8.70;;;;;;;;;;5107359;28;20461;-68
2023/11/17 10:07:40;;;;;;;9.30;8.40;;;;;;;;;;5116868;28;20439;-68
2023/11/17 10:10:07;;;;;;;9.70;7.90;;;;;;;;;;5104230;28;20446;-68
2023/11/17 10:12:37;;;;;;;8.23;7.63;;;;;;;;;;5105732;27;20526;-64
2023/11/17 10:15:08;;;;;;;8.60;7.80;;;;;;;;;;5109246;27;20534;-69
2023/11/17 10:17:36;;;;;;;11.97;8.33;;;;;;;;;;5116715;28;20561;-67
2023/11/17 10:20:03;;;;;;;10.70;9.07;;;;;;;;;;5119660;27;20477;-68
2023/11/17 10:22:32;;;;;;;10.03;9.13;;;;;;;;;;5113375;28;20498;-72
2023/11/17 10:24:59;;;;;;;9.70;8.70;;;;;;;;;;5104330;27;20459;-65
2023/11/17 10:27:27;;;;;;;9.80;8.90;;;;;;;;;;5111927;27;20455;-66
2023/11/17 10:29:55;;;;;;;10.10;9.20;;;;;;;;;;5116567;27;20527;-68
2023/11/17 10:32:25;;;;;;;9.67;8.73;;;;;;;;;;5098947;28;20546;-69
2023/11/17 10:35:07;;;;;;;9.67;8.80;;;;;;;;;;5118656;28;20454;-69
2023/11/17 10:37:34;;;;;;;9.87;8.97;;;;;;;;;;5102496;28;20490;-70
2023/11/17 10:40:02;;;;;;;9.50;8.60;;;;;;;;;;5114990;27;20522;-70
2023/11/17 10:42:32;;;;;;;12.30;8.90;;;;;;;;;;5095614;28;20766;-65
2023/11/17 10:45:15;;;;;;;14.23;9.37;;;;;;;;;;5115818;27;20458;-66
2023/11/17 10:47:41;;;;;;;10.43;8.80;;;;;;;;;;5119208;28;20477;-67
2023/11/17 10:50:08;;;;;;;10.27;9.17;;;;;;;;;;5113322;28;20474;-69
2023/11/17 10:52:34;;;;;;;9.83;8.93;;;;;;;;;;5115689;28;20476;-65
2023/11/17 10:55:01;;;;;;;12.93;9.83;;;;;;;;;;5106082;28;20475;-68
2023/11/17 10:57:27;;;;;;;11.07;10.00;;;;;;;;;;5112648;27;20478;-67
2023/11/17 10:59:55;;;;;;;11.20;10.20;;;;;;;;;;5112647;28;20453;-70
2023/11/17 11:02:26;;;;;;;10.47;9.57;;;;;;;;;;5119181;27;20462;-66
2023/11/17 11:05:00;;;;;;;11.80;8.57;;;;;;;;;;5108287;28;20447;-69
2023/11/17 11:07:26;;;;;;;17.23;8.67;;;;;;;;;;5106411;28;20690;-72
2023/11/17 11:09:53;;;;;;;9.97;8.33;;;;;;;;;;5118131;28;20871;-71
2023/11/17 11:12:20;;;;;;;8.53;7.83;;;;;;;;;;5117820;28;20458;-69
2023/11/17 11:14:49;;;;;;;8.60;7.80;;;;;;;;;;5116504;28;20455;-73
2023/11/17 11:17:16;;;;;;;15.27;13.90;;;;;;;;;;5113445;27;21021;-71
2023/11/17 11:19:45;;;;;;;8.90;8.00;;;;;;;;;;5115002;28;20474;-67
2023/11/17 11:22:13;;;;;;;12.60;11.83;;;;;;;;;;5115253;28;20448;-72
2023/11/17 11:24:41;;;;;;;12.20;11.03;;;;;;;;;;5121404;28;20462;-68
2023/11/17 11:27:09;;;;;;;13.13;11.93;;;;;;;;;;5116174;28;20800;-70
2023/11/17 11:29:38;;;;;;;7.87;7.17;;;;;;;;;;5111075;28;20518;-72
2023/11/17 11:32:06;;;;;;;11.37;10.33;;;;;;;;;;5114690;28;20489;-69
2023/11/17 11:34:34;;;;;;;11.97;11.17;;;;;;;;;;5115244;28;20465;-69
2023/11/17 11:37:03;;;;;;;9.43;8.63;;;;;;;;;;5118607;28;20489;-67
2023/11/17 11:39:31;;;;;;;14.03;12.83;;;;;;;;;;5114661;28;20481;-72
2023/11/17 11:41:57;;;;;;;8.53;7.93;;;;;;;;;;5116735;28;20454;-67
2023/11/17 11:44:24;;;;;;;10.00;8.33;;;;;;;;;;5111750;28;20453;-68
2023/11/17 11:46:51;;;;;;;9.50;8.60;;;;;;;;;;5116105;28;20466;-74
2023/11/17 11:49:19;;;;;;;9.60;8.70;;;;;;;;;;5110807;28;20509;-67
2023/11/17 11:51:48;;;;;;;9.63;8.63;;;;;;;;;;5113502;28;20481;-68
2023/11/17 11:54:15;;;;;;;9.43;8.53;;;;;;;;;;5111032;28;20455;-67
2023/11/17 11:56:42;;;;;;;9.17;8.37;;;;;;;;;;5111037;28;20465;-67
2023/11/17 11:59:10;;;;;;;9.50;8.70;;;;;;;;;;5106234;28;20459;-69
2023/11/17 12:01:37;;;;;;;9.10;8.30;;;;;;;;;;5112818;28;20450;-70
2023/11/17 12:04:05;;;;;;;9.47;8.60;;;;;;;;;;5106774;28;20473;-67
2023/11/17 12:06:32;;;;;;;11.77;8.60;;;;;;;;;;5111770;27;20852;-68
2023/11/17 12:09:00;;;;;;;13.77;12.50;;;;;;;;;;5114875;28;20450;-69
2023/11/17 12:11:34;;;;;;;11.40;10.30;;;;;;;;;;5110047;27;20494;-67
2023/11/17 12:14:00;;;;;;;9.73;8.30;;;;;;;;;;5112811;28;20476;-67
2023/11/17 12:16:32;;;;;;;14.80;9.00;;;;;;;;;;5112557;27;20519;-71
2023/11/17 12:18:59;;;;;;;10.57;9.47;;;;;;;;;;5113032;27;20520;-67
2023/11/17 12:21:26;;;;;;;10.93;9.93;;;;;;;;;;5117551;27;20558;-68
2023/11/17 12:23:54;;;;;;;9.50;8.53;;;;;;;;;;5113425;27;20516;-68
2023/11/17 12:26:22;;;;;;;10.10;9.10;;;;;;;;;;5116907;28;20925;-68
2023/11/17 12:28:49;;;;;;;10.33;9.33;;;;;;;;;;5120001;27;20493;-68
2023/11/17 12:31:16;;;;;;;15.33;13.80;;;;;;;;;;5103641;28;20517;-65
2023/11/17 12:33:43;;;;;;;14.73;13.47;;;;;;;;;;5108395;27;20505;-64
2023/11/17 12:36:13;;;;;;;11.93;9.77;;;;;;;;;;5130646;27;20469;-69
2023/11/17 12:38:40;;;;;;;12.07;9.40;;;;;;;;;;5114375;28;20466;-66
2023/11/17 12:41:10;;;;;;;12.90;9.77;;;;;;;;;;5118586;27;21175;-68
2023/11/17 12:43:37;;;;;;;14.73;13.43;;;;;;;;;;5120107;28;20446;-69
2023/11/17 12:46:05;;;;;;;14.63;13.43;;;;;;;;;;5108730;27;20990;-69
2023/11/17 12:48:32;;;;;;;10.80;9.80;;;;;;;;;;5109823;28;20438;-65
2023/11/17 12:50:58;;;;;;;14.23;12.77;;;;;;;;;;5120756;28;20803;-67
2023/11/17 12:53:25;;;;;;;11.07;10.07;;;;;;;;;;5126782;27;20437;-68
2023/11/17 12:55:51;;;;;;;10.07;9.10;;;;;;;;;;5121853;27;20462;-66
2023/11/17 12:58:19;;;;;;;9.63;8.80;;;;;;;;;;5120211;28;20470;-66
2023/11/17 13:00:49;;;;;;;9.63;8.80;;;;;;;;;;5110356;28;20478;-66
2023/11/17 13:03:17;;;;;;;15.87;9.27;;;;;;;;;;5111076;28;20537;-66
2023/11/17 13:05:45;;;;;;;9.43;8.63;;;;;;;;;;5110599;28;20437;-66
2023/11/17 13:08:11;;;;;;;13.77;12.57;;;;;;;;;;5117120;28;20452;-67
2023/11/17 13:10:40;;;;;;;10.60;9.60;;;;;;;;;;5109283;27;20474;-69
2023/11/17 13:13:08;;;;;;;9.67;8.77;;;;;;;;;;5115930;28;20461;-70
2023/11/17 13:15:34;;;;;;;9.83;8.80;;;;;;;;;;5115520;28;20511;-70
2023/11/17 13:18:01;;;;;;;12.47;11.17;;;;;;;;;;5114954;27;20512;-66
2023/11/17 13:20:30;;;;;;;8.50;7.70;;;;;;;;;;5114114;28;20451;-72
2023/11/17 13:22:57;;;;;;;11.87;9.90;;;;;;;;;;5117117;27;20493;-70
2023/11/17 13:25:25;;;;;;;10.73;8.60;;;;;;;;;;5118814;28;20541;-70
2023/11/17 13:27:52;;;;;;;10.37;9.37;;;;;;;;;;5126970;27;20442;-71
2023/11/17 13:30:19;;;;;;;11.23;8.83;;;;;;;;;;5113922;28;20446;-68
2023/11/17 13:32:50;;;;;;;8.93;8.07;;;;;;;;;;5118616;27;20489;-70
2023/11/17 13:35:18;;;;;;;15.23;9.53;;;;;;;;;;5119383;27;20480;-66
2023/11/17 13:37:46;;;;;;;12.50;9.40;;;;;;;;;;5117836;28;20570;-66
2023/11/17 13:40:21;;;;;;;10.47;9.33;;;;;;;;;;5121508;27;20482;-66
2023/11/17 13:42:49;;;;;;;9.10;8.30;;;;;;;;;;5121265;27;20470;-68
2023/11/17 13:45:15;;;;;;;11.03;8.83;;;;;;;;;;5118354;27;20482;-70
2023/11/17 13:47:45;;;;;;;11.13;8.63;;;;;;;;;;5116492;28;20441;-67
2023/11/17 13:50:15;;;;;;;8.87;7.63;;;;;;;;;;5130981;27;20455;-68
2023/11/17 13:52:42;;;;;;;9.40;8.13;;;;;;;;;;5116121;27;20912;-64
2023/11/17 13:55:12;;;;;;;8.93;7.03;;;;;;;;;;5107532;27;20463;-67
2023/11/17 13:57:39;;;;;;;11.10;8.53;;;;;;;;;;5114347;27;20544;-66
2023/11/17 14:00:10;;;;;;;8.40;7.50;;;;;;;;;;5113341;27;20853;-67
2023/11/17 14:02:37;;;;;;;12.93;8.07;;;;;;;;;;5116821;27;20462;-68
2023/11/17 14:05:06;;;;;;;12.73;7.93;;;;;;;;;;5115311;27;20766;-67
2023/11/17 14:07:34;;;;;;;10.50;8.07;;;;;;;;;;5124370;27;20482;-67
2023/11/17 14:10:00;;;;;;;10.73;8.23;;;;;;;;;;5110682;27;20458;-69
2023/11/17 14:12:28;;;;;;;9.80;7.20;;;;;;;;;;5117050;27;20487;-67
2023/11/17 14:14:54;;;;;;;9.00;7.20;;;;;;;;;;5114509;27;20494;-68
2023/11/17 14:17:21;;;;;;;8.77;6.90;;;;;;;;;;5111659;27;20470;-68
2023/11/17 14:19:48;;;;;;;10.03;7.40;;;;;;;;;;5108665;27;20447;-68
2023/11/17 14:22:15;;;;;;;11.73;7.63;;;;;;;;;;5114845;28;20481;-66
2023/11/17 14:24:41;;;;;;;12.30;8.37;;;;;;;;;;5111173;28;20915;-66
2023/11/17 14:27:08;;;;;;;8.07;7.27;;;;;;;;;;5119908;27;20439;-65
2023/11/17 14:29:41;;;;;;;7.90;7.10;;;;;;;;;;5102473;27;20446;-66
2023/11/17 14:32:08;;;;;;;8.73;7.63;;;;;;;;;;5109721;28;20622;-66
2023/11/17 14:34:35;;;;;;;8.63;6.77;;;;;;;;;;5104628;27;20439;-67